sensor_id;sensor_type;location;lat;lon;timestamp;P1;durP1;ratioP1;P2;durP2;ratioP2
23252;SDS011;11795;47.054;15.408;2022-09-30T00:00:00;3.9;;;3.6;;
23252;SDS011;11795;47.054;15.408;2022-09-30T00:02:00;4.8;;;4.4;;
23252;SDS011;11795;47.054;15.408;2022-09-30T00:04:00;4.8;;;4.4;;
23252;SDS011;11795;47.054;15.408;2022-09-30T00:06:00;5.5;;;5.0;;
23252;SDS011;11795;47.054;15.408;2022-09-30T00:08:00;5.5;;;5.0;;
23252;SDS011;11795;47.054;15.408;2022-09-30T00:10:00;5.5;;;5.0;;
23252;SDS011;11795;47.054;15.408;2022-09-30T00:12:00;4.9;;;4.5;;
23252;SDS011;11795;47.054;15.408;2022-09-30T00:14:00;4.9;;;4.5;;
23252;SDS011;11795;47.054;15.408;2022-09-30T00:16:00;4.4;;;4.0;;
23252;SDS011;11795;47.054;15.408;2022-09-30T00:18:00;4.4;;;4.0;;
23252;SDS011;11795;47.054;15.408;2022-09-30T00:20:00;4.4;;;4.0;;
23252;SDS011;11795;47.054;15.408;2022-09-30T00:22:00;4.3;;;4.0;;
23252;SDS011;11795;47.054;15.408;2022-09-30T00:24:00;4.3;;;4.0;;
23252;SDS011;11795;47.054;15.408;2022-09-30T00:26:02;3.8;;;3.5;;
23252;SDS011;11795;47.054;15.408;2022-09-30T00:28:00;3.8;;;3.5;;
23252;SDS011;11795;47.054;15.408;2022-09-30T00:30:00;3.8;;;3.5;;
23252;SDS011;11795;47.054;15.408;2022-09-30T00:32:00;3.4;;;3.2;;
23252;SDS011;11795;47.054;15.408;2022-09-30T00:34:07;3.4;;;3.2;;
23252;SDS011;11795;47.054;15.408;2022-09-30T00:36:00;3.8;;;3.5;;
23252;SDS011;11795;47.054;15.408;2022-09-30T00:38:00;3.8;;;3.5;;
23252;SDS011;11795;47.054;15.408;2022-09-30T00:40:00;3.8;;;3.5;;
23252;SDS011;11795;47.054;15.408;2022-09-30T00:42:00;4.6;;;4.2;;
23252;SDS011;11795;47.054;15.408;2022-09-30T00:44:00;4.6;;;4.2;;
23252;SDS011;11795;47.054;15.408;2022-09-30T00:46:00;4.0;;;3.7;;
23252;SDS011;11795;47.054;15.408;2022-09-30T00:48:01;4.0;;;3.7;;
23252;SDS011;11795;47.054;15.408;2022-09-30T00:50:01;4.0;;;3.7;;
23252;SDS011;11795;47.054;15.408;2022-09-30T00:52:00;4.3;;;3.9;;
23252;SDS011;11795;47.054;15.408;2022-09-30T00:54:00;4.3;;;3.9;;
23252;SDS011;11795;47.054;15.408;2022-09-30T00:56:00;4.0;;;3.7;;
23252;SDS011;11795;47.054;15.408;2022-09-30T00:58:00;4.0;;;3.7;;
23252;SDS011;11795;47.054;15.408;2022-09-30T01:00:00;4.0;;;3.7;;
23252;SDS011;11795;47.054;15.408;2022-09-30T01:02:00;4.5;;;4.1;;
23252;SDS011;11795;47.054;15.408;2022-09-30T01:04:00;4.5;;;4.1;;
23252;SDS011;11795;47.054;15.408;2022-09-30T01:06:00;4.2;;;3.8;;
23252;SDS011;11795;47.054;15.408;2022-09-30T01:08:00;4.2;;;3.8;;
23252;SDS011;11795;47.054;15.408;2022-09-30T01:10:00;4.2;;;3.8;;
23252;SDS011;11795;47.054;15.408;2022-09-30T01:12:00;5.1;;;4.7;;
23252;SDS011;11795;47.054;15.408;2022-09-30T01:14:00;5.1;;;4.7;;
23252;SDS011;11795;47.054;15.408;2022-09-30T01:16:10;5.1;;;4.6;;
23252;SDS011;11795;47.054;15.408;2022-09-30T01:18:01;5.1;;;4.6;;
23252;SDS011;11795;47.054;15.408;2022-09-30T01:20:09;5.1;;;4.6;;
23252;SDS011;11795;47.054;15.408;2022-09-30T01:22:06;4.9;;;4.5;;
23252;SDS011;11795;47.054;15.408;2022-09-30T01:26:07;5.4;;;5.0;;
23252;SDS011;11795;47.054;15.408;2022-09-30T01:30:03;5.4;;;5.0;;
23252;SDS011;11795;47.054;15.408;2022-09-30T01:32:01;5.7;;;5.2;;
23252;SDS011;11795;47.054;15.408;2022-09-30T01:34:01;5.7;;;5.2;;
23252;SDS011;11795;47.054;15.408;2022-09-30T01:36:04;6.1;;;5.5;;
23252;SDS011;11795;47.054;15.408;2022-09-30T01:38:02;6.1;;;5.5;;
23252;SDS011;11795;47.054;15.408;2022-09-30T01:40:02;6.1;;;5.5;;
23252;SDS011;11795;47.054;15.408;2022-09-30T01:42:03;5.1;;;4.7;;
23252;SDS011;11795;47.054;15.408;2022-09-30T01:44:04;5.1;;;4.7;;
23252;SDS011;11795;47.054;15.408;2022-09-30T01:46:02;6.3;;;5.8;;
23252;SDS011;11795;47.054;15.408;2022-09-30T01:48:01;6.3;;;5.8;;
23252;SDS011;11795;47.054;15.408;2022-09-30T01:50:02;6.3;;;5.8;;
23252;SDS011;11795;47.054;15.408;2022-09-30T01:52:00;5.5;;;5.0;;
23252;SDS011;11795;47.054;15.408;2022-09-30T01:54:01;5.5;;;5.0;;
23252;SDS011;11795;47.054;15.408;2022-09-30T01:56:01;5.3;;;4.9;;
23252;SDS011;11795;47.054;15.408;2022-09-30T01:58:00;5.3;;;4.9;;
23252;SDS011;11795;47.054;15.408;2022-09-30T02:00:03;5.3;;;4.9;;
23252;SDS011;11795;47.054;15.408;2022-09-30T02:02:01;4.8;;;4.4;;
23252;SDS011;11795;47.054;15.408;2022-09-30T02:04:00;4.8;;;4.4;;
23252;SDS011;11795;47.054;15.408;2022-09-30T02:06:01;4.9;;;4.5;;
23252;SDS011;11795;47.054;15.408;2022-09-30T02:08:01;4.9;;;4.5;;
23252;SDS011;11795;47.054;15.408;2022-09-30T02:10:01;4.9;;;4.5;;
23252;SDS011;11795;47.054;15.408;2022-09-30T02:12:00;4.9;;;4.4;;
23252;SDS011;11795;47.054;15.408;2022-09-30T02:14:01;4.9;;;4.4;;
23252;SDS011;11795;47.054;15.408;2022-09-30T02:16:00;4.6;;;4.3;;
23252;SDS011;11795;47.054;15.408;2022-09-30T02:18:01;4.6;;;4.3;;
23252;SDS011;11795;47.054;15.408;2022-09-30T02:20:02;4.6;;;4.3;;
23252;SDS011;11795;47.054;15.408;2022-09-30T02:22:01;4.4;;;4.0;;
23252;SDS011;11795;47.054;15.408;2022-09-30T02:24:01;4.4;;;4.0;;
23252;SDS011;11795;47.054;15.408;2022-09-30T02:26:06;5.4;;;4.9;;
23252;SDS011;11795;47.054;15.408;2022-09-30T02:28:01;5.4;;;4.9;;
23252;SDS011;11795;47.054;15.408;2022-09-30T02:30:00;5.4;;;4.9;;
23252;SDS011;11795;47.054;15.408;2022-09-30T02:32:02;5.6;;;5.1;;
23252;SDS011;11795;47.054;15.408;2022-09-30T02:34:01;5.6;;;5.1;;
23252;SDS011;11795;47.054;15.408;2022-09-30T02:36:03;4.7;;;4.3;;
23252;SDS011;11795;47.054;15.408;2022-09-30T02:38:03;4.7;;;4.3;;
23252;SDS011;11795;47.054;15.408;2022-09-30T02:40:02;4.7;;;4.3;;
23252;SDS011;11795;47.054;15.408;2022-09-30T02:42:02;5.6;;;5.1;;
23252;SDS011;11795;47.054;15.408;2022-09-30T02:44:01;5.6;;;5.1;;
23252;SDS011;11795;47.054;15.408;2022-09-30T02:46:02;5.5;;;5.0;;
23252;SDS011;11795;47.054;15.408;2022-09-30T02:48:02;5.5;;;5.0;;
23252;SDS011;11795;47.054;15.408;2022-09-30T02:50:01;5.5;;;5.0;;
23252;SDS011;11795;47.054;15.408;2022-09-30T02:52:04;5.4;;;5.0;;
23252;SDS011;11795;47.054;15.408;2022-09-30T02:54:01;5.4;;;5.0;;
23252;SDS011;11795;47.054;15.408;2022-09-30T02:56:04;6.1;;;5.5;;
23252;SDS011;11795;47.054;15.408;2022-09-30T02:58:03;6.1;;;5.5;;
23252;SDS011;11795;47.054;15.408;2022-09-30T03:00:00;6.1;;;5.5;;
23252;SDS011;11795;47.054;15.408;2022-09-30T03:02:00;5.7;;;5.2;;
23252;SDS011;11795;47.054;15.408;2022-09-30T03:04:01;5.7;;;5.2;;
23252;SDS011;11795;47.054;15.408;2022-09-30T03:06:00;6.0;;;5.4;;
23252;SDS011;11795;47.054;15.408;2022-09-30T03:08:00;6.0;;;5.4;;
23252;SDS011;11795;47.054;15.408;2022-09-30T03:10:00;6.0;;;5.4;;
23252;SDS011;11795;47.054;15.408;2022-09-30T03:12:02;6.0;;;5.4;;
23252;SDS011;11795;47.054;15.408;2022-09-30T03:14:06;6.0;;;5.4;;
23252;SDS011;11795;47.054;15.408;2022-09-30T03:16:04;6.3;;;5.7;;
23252;SDS011;11795;47.054;15.408;2022-09-30T03:18:04;6.3;;;5.7;;
23252;SDS011;11795;47.054;15.408;2022-09-30T03:20:05;6.3;;;5.7;;
23252;SDS011;11795;47.054;15.408;2022-09-30T03:22:05;6.7;;;5.8;;
23252;SDS011;11795;47.054;15.408;2022-09-30T03:26:02;5.0;;;4.6;;
23252;SDS011;11795;47.054;15.408;2022-09-30T03:28:03;5.0;;;4.6;;
23252;SDS011;11795;47.054;15.408;2022-09-30T03:30:01;5.0;;;4.6;;
23252;SDS011;11795;47.054;15.408;2022-09-30T03:32:04;4.3;;;3.9;;
23252;SDS011;11795;47.054;15.408;2022-09-30T03:34:01;4.3;;;3.9;;
23252;SDS011;11795;47.054;15.408;2022-09-30T03:36:00;4.0;;;3.7;;
23252;SDS011;11795;47.054;15.408;2022-09-30T03:38:01;4.0;;;3.7;;
23252;SDS011;11795;47.054;15.408;2022-09-30T03:40:01;4.0;;;3.7;;
23252;SDS011;11795;47.054;15.408;2022-09-30T03:42:01;4.3;;;3.9;;
23252;SDS011;11795;47.054;15.408;2022-09-30T03:44:01;4.3;;;3.9;;
23252;SDS011;11795;47.054;15.408;2022-09-30T03:46:01;4.7;;;4.3;;
23252;SDS011;11795;47.054;15.408;2022-09-30T03:48:00;4.7;;;4.3;;
23252;SDS011;11795;47.054;15.408;2022-09-30T03:50:01;4.7;;;4.3;;
23252;SDS011;11795;47.054;15.408;2022-09-30T03:52:03;4.1;;;3.7;;
23252;SDS011;11795;47.054;15.408;2022-09-30T03:54:00;4.1;;;3.7;;
23252;SDS011;11795;47.054;15.408;2022-09-30T03:56:00;4.7;;;4.3;;
23252;SDS011;11795;47.054;15.408;2022-09-30T03:58:00;4.7;;;4.3;;
23252;SDS011;11795;47.054;15.408;2022-09-30T04:00:01;4.7;;;4.3;;
23252;SDS011;11795;47.054;15.408;2022-09-30T04:02:00;4.3;;;3.9;;
23252;SDS011;11795;47.054;15.408;2022-09-30T04:04:00;4.3;;;3.9;;
23252;SDS011;11795;47.054;15.408;2022-09-30T04:06:00;4.8;;;4.3;;
23252;SDS011;11795;47.054;15.408;2022-09-30T04:08:00;4.8;;;4.3;;
23252;SDS011;11795;47.054;15.408;2022-09-30T04:10:00;4.8;;;4.3;;
23252;SDS011;11795;47.054;15.408;2022-09-30T04:12:00;5.0;;;4.6;;
23252;SDS011;11795;47.054;15.408;2022-09-30T04:14:00;5.0;;;4.6;;
23252;SDS011;11795;47.054;15.408;2022-09-30T04:16:00;4.4;;;4.0;;
23252;SDS011;11795;47.054;15.408;2022-09-30T04:18:00;4.4;;;4.0;;
23252;SDS011;11795;47.054;15.408;2022-09-30T04:20:00;4.4;;;4.0;;
23252;SDS011;11795;47.054;15.408;2022-09-30T04:22:00;4.7;;;4.3;;
23252;SDS011;11795;47.054;15.408;2022-09-30T04:24:00;4.7;;;4.3;;
23252;SDS011;11795;47.054;15.408;2022-09-30T04:26:01;4.6;;;4.2;;
23252;SDS011;11795;47.054;15.408;2022-09-30T04:28:00;4.6;;;4.2;;
23252;SDS011;11795;47.054;15.408;2022-09-30T04:30:00;4.6;;;4.2;;
23252;SDS011;11795;47.054;15.408;2022-09-30T04:32:00;4.0;;;3.6;;
23252;SDS011;11795;47.054;15.408;2022-09-30T04:34:00;4.0;;;3.6;;
23252;SDS011;11795;47.054;15.408;2022-09-30T04:36:00;4.0;;;3.6;;
23252;SDS011;11795;47.054;15.408;2022-09-30T04:38:01;5.0;;;4.6;;
23252;SDS011;11795;47.054;15.408;2022-09-30T04:40:01;5.0;;;4.6;;
23252;SDS011;11795;47.054;15.408;2022-09-30T04:42:00;6.7;;;6.0;;
23252;SDS011;11795;47.054;15.408;2022-09-30T04:44:05;6.7;;;6.0;;
23252;SDS011;11795;47.054;15.408;2022-09-30T04:46:00;6.7;;;6.0;;
23252;SDS011;11795;47.054;15.408;2022-09-30T04:48:00;6.9;;;6.3;;
23252;SDS011;11795;47.054;15.408;2022-09-30T04:50:00;6.9;;;6.3;;
23252;SDS011;11795;47.054;15.408;2022-09-30T04:52:00;6.9;;;6.3;;
23252;SDS011;11795;47.054;15.408;2022-09-30T04:54:00;6.9;;;6.3;;
23252;SDS011;11795;47.054;15.408;2022-09-30T04:56:00;6.9;;;6.3;;
23252;SDS011;11795;47.054;15.408;2022-09-30T04:58:00;6.3;;;5.7;;
23252;SDS011;11795;47.054;15.408;2022-09-30T05:00:00;6.3;;;5.7;;
23252;SDS011;11795;47.054;15.408;2022-09-30T05:02:01;6.1;;;5.5;;
23252;SDS011;11795;47.054;15.408;2022-09-30T05:04:00;6.1;;;5.5;;
23252;SDS011;11795;47.054;15.408;2022-09-30T05:06:00;6.1;;;5.5;;
23252;SDS011;11795;47.054;15.408;2022-09-30T05:08:00;5.5;;;5.0;;
23252;SDS011;11795;47.054;15.408;2022-09-30T05:10:00;5.5;;;5.0;;
23252;SDS011;11795;47.054;15.408;2022-09-30T05:12:02;4.4;;;4.0;;
23252;SDS011;11795;47.054;15.408;2022-09-30T05:14:00;4.4;;;4.0;;
23252;SDS011;11795;47.054;15.408;2022-09-30T05:16:00;4.4;;;4.0;;
23252;SDS011;11795;47.054;15.408;2022-09-30T05:18:00;4.4;;;4.0;;
23252;SDS011;11795;47.054;15.408;2022-09-30T05:20:00;4.4;;;4.0;;
23252;SDS011;11795;47.054;15.408;2022-09-30T05:22:00;5.2;;;4.7;;
23252;SDS011;11795;47.054;15.408;2022-09-30T05:24:00;5.2;;;4.7;;
23252;SDS011;11795;47.054;15.408;2022-09-30T05:26:00;5.2;;;4.7;;
23252;SDS011;11795;47.054;15.408;2022-09-30T05:28:00;5.4;;;4.9;;
23252;SDS011;11795;47.054;15.408;2022-09-30T05:30:00;5.4;;;4.9;;
23252;SDS011;11795;47.054;15.408;2022-09-30T05:32:00;5.6;;;5.1;;
23252;SDS011;11795;47.054;15.408;2022-09-30T05:34:00;5.6;;;5.1;;
23252;SDS011;11795;47.054;15.408;2022-09-30T05:36:00;5.6;;;5.1;;
23252;SDS011;11795;47.054;15.408;2022-09-30T05:38:00;5.6;;;5.1;;
23252;SDS011;11795;47.054;15.408;2022-09-30T05:40:00;5.6;;;5.1;;
23252;SDS011;11795;47.054;15.408;2022-09-30T05:42:00;5.4;;;5.0;;
23252;SDS011;11795;47.054;15.408;2022-09-30T05:44:00;5.4;;;5.0;;
23252;SDS011;11795;47.054;15.408;2022-09-30T05:46:00;5.4;;;5.0;;
23252;SDS011;11795;47.054;15.408;2022-09-30T05:48:00;5.2;;;4.7;;
23252;SDS011;11795;47.054;15.408;2022-09-30T05:50:00;5.2;;;4.7;;
23252;SDS011;11795;47.054;15.408;2022-09-30T05:52:00;5.9;;;5.4;;
23252;SDS011;11795;47.054;15.408;2022-09-30T05:54:00;5.9;;;5.4;;
23252;SDS011;11795;47.054;15.408;2022-09-30T05:56:00;5.9;;;5.4;;
23252;SDS011;11795;47.054;15.408;2022-09-30T05:58:00;5.0;;;4.6;;
23252;SDS011;11795;47.054;15.408;2022-09-30T06:00:00;5.0;;;4.6;;
23252;SDS011;11795;47.054;15.408;2022-09-30T06:02:00;5.5;;;5.0;;
23252;SDS011;11795;47.054;15.408;2022-09-30T06:04:00;5.5;;;5.0;;
23252;SDS011;11795;47.054;15.408;2022-09-30T06:06:00;5.5;;;5.0;;
23252;SDS011;11795;47.054;15.408;2022-09-30T06:08:00;7.7;;;6.9;;
23252;SDS011;11795;47.054;15.408;2022-09-30T06:10:00;7.7;;;6.9;;
23252;SDS011;11795;47.054;15.408;2022-09-30T06:12:00;8.0;;;7.3;;
23252;SDS011;11795;47.054;15.408;2022-09-30T06:14:00;8.0;;;7.3;;
23252;SDS011;11795;47.054;15.408;2022-09-30T06:16:00;8.0;;;7.3;;
23252;SDS011;11795;47.054;15.408;2022-09-30T06:18:00;7.7;;;6.9;;
23252;SDS011;11795;47.054;15.408;2022-09-30T06:20:00;7.7;;;6.9;;
23252;SDS011;11795;47.054;15.408;2022-09-30T06:22:00;8.5;;;7.6;;
23252;SDS011;11795;47.054;15.408;2022-09-30T06:24:00;8.5;;;7.6;;
23252;SDS011;11795;47.054;15.408;2022-09-30T06:26:00;8.5;;;7.6;;
23252;SDS011;11795;47.054;15.408;2022-09-30T06:28:01;7.6;;;6.9;;
23252;SDS011;11795;47.054;15.408;2022-09-30T06:30:00;7.6;;;6.9;;
23252;SDS011;11795;47.054;15.408;2022-09-30T06:32:01;7.1;;;6.4;;
23252;SDS011;11795;47.054;15.408;2022-09-30T06:34:00;7.1;;;6.4;;
23252;SDS011;11795;47.054;15.408;2022-09-30T06:36:03;7.1;;;6.4;;
23252;SDS011;11795;47.054;15.408;2022-09-30T06:38:00;8.5;;;6.8;;
23252;SDS011;11795;47.054;15.408;2022-09-30T06:40:00;8.5;;;6.8;;
23252;SDS011;11795;47.054;15.408;2022-09-30T06:42:00;10.4;;;7.9;;
23252;SDS011;11795;47.054;15.408;2022-09-30T06:44:00;10.4;;;7.9;;
23252;SDS011;11795;47.054;15.408;2022-09-30T06:46:00;10.4;;;7.9;;
23252;SDS011;11795;47.054;15.408;2022-09-30T06:48:01;8.7;;;7.7;;
23252;SDS011;11795;47.054;15.408;2022-09-30T06:50:01;8.7;;;7.7;;
23252;SDS011;11795;47.054;15.408;2022-09-30T06:52:00;7.5;;;6.7;;
23252;SDS011;11795;47.054;15.408;2022-09-30T06:54:00;7.5;;;6.7;;
23252;SDS011;11795;47.054;15.408;2022-09-30T06:56:00;7.5;;;6.7;;
23252;SDS011;11795;47.054;15.408;2022-09-30T06:58:00;9.6;;;7.8;;
23252;SDS011;11795;47.054;15.408;2022-09-30T07:00:00;9.6;;;7.8;;
23252;SDS011;11795;47.054;15.408;2022-09-30T07:02:00;9.4;;;7.1;;
23252;SDS011;11795;47.054;15.408;2022-09-30T07:04:02;9.4;;;7.1;;
23252;SDS011;11795;47.054;15.408;2022-09-30T07:06:01;9.4;;;7.1;;
23252;SDS011;11795;47.054;15.408;2022-09-30T07:08:00;8.5;;;6.9;;
23252;SDS011;11795;47.054;15.408;2022-09-30T07:10:00;8.5;;;6.9;;
23252;SDS011;11795;47.054;15.408;2022-09-30T07:12:00;7.0;;;6.3;;
23252;SDS011;11795;47.054;15.408;2022-09-30T07:14:00;7.0;;;6.3;;
23252;SDS011;11795;47.054;15.408;2022-09-30T07:16:00;7.0;;;6.3;;
23252;SDS011;11795;47.054;15.408;2022-09-30T07:18:00;7.7;;;6.4;;
23252;SDS011;11795;47.054;15.408;2022-09-30T07:20:00;7.7;;;6.4;;
23252;SDS011;11795;47.054;15.408;2022-09-30T07:22:10;7.2;;;6.4;;
23252;SDS011;11795;47.054;15.408;2022-09-30T07:24:00;7.2;;;6.4;;
23252;SDS011;11795;47.054;15.408;2022-09-30T07:26:02;7.2;;;6.4;;
23252;SDS011;11795;47.054;15.408;2022-09-30T07:28:00;7.4;;;6.7;;
23252;SDS011;11795;47.054;15.408;2022-09-30T07:30:01;7.4;;;6.7;;
23252;SDS011;11795;47.054;15.408;2022-09-30T07:32:00;8.2;;;7.3;;
23252;SDS011;11795;47.054;15.408;2022-09-30T07:34:00;8.2;;;7.3;;
23252;SDS011;11795;47.054;15.408;2022-09-30T07:36:00;8.2;;;7.3;;
23252;SDS011;11795;47.054;15.408;2022-09-30T07:38:00;7.9;;;7.1;;
23252;SDS011;11795;47.054;15.408;2022-09-30T07:40:00;7.9;;;7.1;;
23252;SDS011;11795;47.054;15.408;2022-09-30T07:42:01;7.1;;;6.4;;
23252;SDS011;11795;47.054;15.408;2022-09-30T07:44:00;7.1;;;6.4;;
23252;SDS011;11795;47.054;15.408;2022-09-30T07:46:02;7.1;;;6.4;;
23252;SDS011;11795;47.054;15.408;2022-09-30T07:48:01;6.9;;;5.8;;
23252;SDS011;11795;47.054;15.408;2022-09-30T07:50:00;6.9;;;5.8;;
23252;SDS011;11795;47.054;15.408;2022-09-30T07:52:00;8.4;;;6.5;;
23252;SDS011;11795;47.054;15.408;2022-09-30T07:54:01;8.4;;;6.5;;
23252;SDS011;11795;47.054;15.408;2022-09-30T07:56:01;8.4;;;6.5;;
23252;SDS011;11795;47.054;15.408;2022-09-30T07:58:00;6.5;;;5.7;;
23252;SDS011;11795;47.054;15.408;2022-09-30T08:00:00;6.5;;;5.7;;
23252;SDS011;11795;47.054;15.408;2022-09-30T08:02:00;6.3;;;5.7;;
23252;SDS011;11795;47.054;15.408;2022-09-30T08:04:01;6.3;;;5.7;;
23252;SDS011;11795;47.054;15.408;2022-09-30T08:06:04;6.3;;;5.7;;
23252;SDS011;11795;47.054;15.408;2022-09-30T08:08:00;7.5;;;6.8;;
23252;SDS011;11795;47.054;15.408;2022-09-30T08:10:00;7.5;;;6.8;;
23252;SDS011;11795;47.054;15.408;2022-09-30T08:12:01;8.3;;;7.5;;
23252;SDS011;11795;47.054;15.408;2022-09-30T08:14:00;8.3;;;7.5;;
23252;SDS011;11795;47.054;15.408;2022-09-30T08:16:00;8.3;;;7.5;;
23252;SDS011;11795;47.054;15.408;2022-09-30T08:18:00;7.2;;;6.5;;
23252;SDS011;11795;47.054;15.408;2022-09-30T08:20:00;7.2;;;6.5;;
23252;SDS011;11795;47.054;15.408;2022-09-30T08:22:00;6.4;;;5.9;;
23252;SDS011;11795;47.054;15.408;2022-09-30T08:24:01;6.4;;;5.9;;
23252;SDS011;11795;47.054;15.408;2022-09-30T08:26:00;6.4;;;5.9;;
23252;SDS011;11795;47.054;15.408;2022-09-30T08:28:00;7.3;;;6.1;;
23252;SDS011;11795;47.054;15.408;2022-09-30T08:30:00;7.3;;;6.1;;
23252;SDS011;11795;47.054;15.408;2022-09-30T08:32:00;6.1;;;5.5;;
23252;SDS011;11795;47.054;15.408;2022-09-30T08:34:02;6.1;;;5.5;;
23252;SDS011;11795;47.054;15.408;2022-09-30T08:36:00;6.1;;;5.5;;
23252;SDS011;11795;47.054;15.408;2022-09-30T08:38:00;5.3;;;4.8;;
23252;SDS011;11795;47.054;15.408;2022-09-30T08:40:00;5.3;;;4.8;;
23252;SDS011;11795;47.054;15.408;2022-09-30T08:42:04;7.1;;;5.8;;
23252;SDS011;11795;47.054;15.408;2022-09-30T08:44:03;7.1;;;5.8;;
23252;SDS011;11795;47.054;15.408;2022-09-30T08:46:01;7.1;;;5.8;;
23252;SDS011;11795;47.054;15.408;2022-09-30T08:48:01;5.4;;;4.9;;
23252;SDS011;11795;47.054;15.408;2022-09-30T08:50:02;5.4;;;4.9;;
23252;SDS011;11795;47.054;15.408;2022-09-30T08:52:00;5.5;;;5.0;;
23252;SDS011;11795;47.054;15.408;2022-09-30T08:54:02;5.5;;;5.0;;
23252;SDS011;11795;47.054;15.408;2022-09-30T08:56:01;5.5;;;5.0;;
23252;SDS011;11795;47.054;15.408;2022-09-30T08:58:00;42.0;;;27.0;;
23252;SDS011;11795;47.054;15.408;2022-09-30T09:00:00;42.0;;;27.0;;
23252;SDS011;11795;47.054;15.408;2022-09-30T09:02:01;8.6;;;7.3;;
23252;SDS011;11795;47.054;15.408;2022-09-30T09:04:00;8.6;;;7.3;;
23252;SDS011;11795;47.054;15.408;2022-09-30T09:06:05;8.6;;;7.3;;
23252;SDS011;11795;47.054;15.408;2022-09-30T09:08:02;6.4;;;4.9;;
23252;SDS011;11795;47.054;15.408;2022-09-30T09:10:02;6.4;;;4.9;;
23252;SDS011;11795;47.054;15.408;2022-09-30T09:12:03;5.6;;;4.7;;
23252;SDS011;11795;47.054;15.408;2022-09-30T09:14:01;5.6;;;4.7;;
23252;SDS011;11795;47.054;15.408;2022-09-30T09:16:01;5.6;;;4.7;;
23252;SDS011;11795;47.054;15.408;2022-09-30T09:18:04;5.0;;;4.5;;
23252;SDS011;11795;47.054;15.408;2022-09-30T09:20:01;5.0;;;4.5;;
23252;SDS011;11795;47.054;15.408;2022-09-30T09:22:00;4.5;;;4.1;;
23252;SDS011;11795;47.054;15.408;2022-09-30T09:24:00;4.5;;;4.1;;
23252;SDS011;11795;47.054;15.408;2022-09-30T09:26:00;4.5;;;4.1;;
23252;SDS011;11795;47.054;15.408;2022-09-30T09:28:00;4.4;;;4.0;;
23252;SDS011;11795;47.054;15.408;2022-09-30T09:30:08;4.4;;;4.0;;
23252;SDS011;11795;47.054;15.408;2022-09-30T09:32:01;4.1;;;3.8;;
23252;SDS011;11795;47.054;15.408;2022-09-30T09:34:00;4.1;;;3.8;;
23252;SDS011;11795;47.054;15.408;2022-09-30T09:36:02;4.1;;;3.8;;
23252;SDS011;11795;47.054;15.408;2022-09-30T09:38:12;4.4;;;3.8;;
23252;SDS011;11795;47.054;15.408;2022-09-30T09:40:02;4.4;;;3.8;;
23252;SDS011;11795;47.054;15.408;2022-09-30T09:42:02;3.2;;;2.9;;
23252;SDS011;11795;47.054;15.408;2022-09-30T09:44:01;3.2;;;2.9;;
23252;SDS011;11795;47.054;15.408;2022-09-30T09:46:02;3.2;;;2.9;;
23252;SDS011;11795;47.054;15.408;2022-09-30T09:48:00;3.8;;;3.2;;
23252;SDS011;11795;47.054;15.408;2022-09-30T09:50:02;3.8;;;3.2;;
23252;SDS011;11795;47.054;15.408;2022-09-30T09:52:12;2.8;;;2.6;;
23252;SDS011;11795;47.054;15.408;2022-09-30T09:54:00;2.8;;;2.6;;
23252;SDS011;11795;47.054;15.408;2022-09-30T09:56:04;2.8;;;2.6;;
23252;SDS011;11795;47.054;15.408;2022-09-30T09:58:04;3.0;;;2.7;;
23252;SDS011;11795;47.054;15.408;2022-09-30T10:00:10;3.0;;;2.7;;
23252;SDS011;11795;47.054;15.408;2022-09-30T10:02:00;2.7;;;2.5;;
23252;SDS011;11795;47.054;15.408;2022-09-30T10:06:02;2.7;;;2.5;;
23252;SDS011;11795;47.054;15.408;2022-09-30T10:08:07;2.3;;;2.1;;
23252;SDS011;11795;47.054;15.408;2022-09-30T10:10:10;2.3;;;2.1;;
23252;SDS011;11795;47.054;15.408;2022-09-30T10:14:00;3.0;;;2.7;;
23252;SDS011;11795;47.054;15.408;2022-09-30T10:16:00;3.0;;;2.7;;
23252;SDS011;11795;47.054;15.408;2022-09-30T10:18:00;2.2;;;2.0;;
23252;SDS011;11795;47.054;15.408;2022-09-30T10:20:02;2.2;;;2.0;;
23252;SDS011;11795;47.054;15.408;2022-09-30T10:24:00;2.6;;;2.4;;
23252;SDS011;11795;47.054;15.408;2022-09-30T10:26:02;2.6;;;2.4;;
23252;SDS011;11795;47.054;15.408;2022-09-30T10:28:00;3.1;;;2.8;;
23252;SDS011;11795;47.054;15.408;2022-09-30T10:30:00;3.1;;;2.8;;
23252;SDS011;11795;47.054;15.408;2022-09-30T10:32:00;3.1;;;2.8;;
23252;SDS011;11795;47.054;15.408;2022-09-30T10:34:00;2.7;;;2.4;;
23252;SDS011;11795;47.054;15.408;2022-09-30T10:36:02;2.7;;;2.4;;
23252;SDS011;11795;47.054;15.408;2022-09-30T10:38:00;3.3;;;2.4;;
23252;SDS011;11795;47.054;15.408;2022-09-30T10:40:01;3.3;;;2.4;;
23252;SDS011;11795;47.054;15.408;2022-09-30T10:42:01;3.3;;;2.4;;
23252;SDS011;11795;47.054;15.408;2022-09-30T10:44:01;3.4;;;2.2;;
23252;SDS011;11795;47.054;15.408;2022-09-30T10:46:03;3.4;;;2.2;;
23252;SDS011;11795;47.054;15.408;2022-09-30T10:48:01;3.5;;;2.2;;
23252;SDS011;11795;47.054;15.408;2022-09-30T10:50:03;3.5;;;2.2;;
23252;SDS011;11795;47.054;15.408;2022-09-30T10:52:00;3.5;;;2.2;;
23252;SDS011;11795;47.054;15.408;2022-09-30T10:54:00;1.8;;;1.7;;
23252;SDS011;11795;47.054;15.408;2022-09-30T10:56:00;1.8;;;1.7;;
23252;SDS011;11795;47.054;15.408;2022-09-30T10:58:03;1.5;;;1.4;;
23252;SDS011;11795;47.054;15.408;2022-09-30T11:00:01;1.5;;;1.4;;
23252;SDS011;11795;47.054;15.408;2022-09-30T11:02:04;1.5;;;1.4;;
23252;SDS011;11795;47.054;15.408;2022-09-30T11:04:04;2.6;;;1.6;;
23252;SDS011;11795;47.054;15.408;2022-09-30T11:06:00;2.6;;;1.6;;
23252;SDS011;11795;47.054;15.408;2022-09-30T11:08:01;2.1;;;1.7;;
23252;SDS011;11795;47.054;15.408;2022-09-30T11:10:01;2.1;;;1.7;;
23252;SDS011;11795;47.054;15.408;2022-09-30T11:12:01;2.1;;;1.7;;
23252;SDS011;11795;47.054;15.408;2022-09-30T11:14:00;2.1;;;1.7;;
23252;SDS011;11795;47.054;15.408;2022-09-30T11:16:02;2.1;;;1.7;;
23252;SDS011;11795;47.054;15.408;2022-09-30T11:18:00;1.9;;;1.4;;
23252;SDS011;11795;47.054;15.408;2022-09-30T11:20:04;1.9;;;1.4;;
23252;SDS011;11795;47.054;15.408;2022-09-30T11:22:02;1.9;;;1.4;;
23252;SDS011;11795;47.054;15.408;2022-09-30T11:24:01;2.0;;;1.4;;
23252;SDS011;11795;47.054;15.408;2022-09-30T11:26:01;2.0;;;1.4;;
23252;SDS011;11795;47.054;15.408;2022-09-30T11:28:07;2.0;;;1.3;;
23252;SDS011;11795;47.054;15.408;2022-09-30T11:30:03;2.0;;;1.3;;
23252;SDS011;11795;47.054;15.408;2022-09-30T11:32:01;2.0;;;1.3;;
23252;SDS011;11795;47.054;15.408;2022-09-30T11:34:04;1.7;;;1.3;;
23252;SDS011;11795;47.054;15.408;2022-09-30T11:36:02;1.7;;;1.3;;
23252;SDS011;11795;47.054;15.408;2022-09-30T11:38:04;1.7;;;1.0;;
23252;SDS011;11795;47.054;15.408;2022-09-30T11:40:02;1.7;;;1.0;;
23252;SDS011;11795;47.054;15.408;2022-09-30T11:42:01;1.7;;;1.0;;
23252;SDS011;11795;47.054;15.408;2022-09-30T11:44:03;1.3;;;1.2;;
23252;SDS011;11795;47.054;15.408;2022-09-30T11:46:05;1.3;;;1.2;;
23252;SDS011;11795;47.054;15.408;2022-09-30T11:48:06;1.9;;;1.3;;
23252;SDS011;11795;47.054;15.408;2022-09-30T11:50:07;1.9;;;1.3;;
23252;SDS011;11795;47.054;15.408;2022-09-30T11:52:02;1.9;;;1.3;;
23252;SDS011;11795;47.054;15.408;2022-09-30T11:54:04;2.3;;;1.1;;
23252;SDS011;11795;47.054;15.408;2022-09-30T11:56:03;2.3;;;1.1;;
23252;SDS011;11795;47.054;15.408;2022-09-30T11:58:01;1.2;;;1.0;;
23252;SDS011;11795;47.054;15.408;2022-09-30T12:00:00;1.2;;;1.0;;
23252;SDS011;11795;47.054;15.408;2022-09-30T12:02:01;1.2;;;1.0;;
23252;SDS011;11795;47.054;15.408;2022-09-30T12:04:02;1.4;;;1.1;;
23252;SDS011;11795;47.054;15.408;2022-09-30T12:06:01;1.4;;;1.1;;
23252;SDS011;11795;47.054;15.408;2022-09-30T12:08:01;0.8;;;0.8;;
23252;SDS011;11795;47.054;15.408;2022-09-30T12:10:02;0.8;;;0.8;;
23252;SDS011;11795;47.054;15.408;2022-09-30T12:12:02;0.8;;;0.8;;
23252;SDS011;11795;47.054;15.408;2022-09-30T12:14:02;1.0;;;0.9;;
23252;SDS011;11795;47.054;15.408;2022-09-30T12:16:00;1.0;;;0.9;;
23252;SDS011;11795;47.054;15.408;2022-09-30T12:18:01;1.4;;;0.9;;
23252;SDS011;11795;47.054;15.408;2022-09-30T12:20:02;1.4;;;0.9;;
23252;SDS011;11795;47.054;15.408;2022-09-30T12:22:03;1.4;;;0.9;;
23252;SDS011;11795;47.054;15.408;2022-09-30T12:24:01;1.8;;;0.8;;